Time;durP1;ratioP1;P1;durP2;ratioP2;P2;SDS_P1;SDS_P2;PMS_P1;PMS_P2;Temp;Humidity;BMP_temperature;BMP_pressure;BME280_temperature;BME280_humidity;BME280_pressure;Samples;Min_cycle;Max_cycle;Signal;HPM_P1;HPM_P2
2022/04/15 00:02:06;;;;;;;3.30;3.00;;;14.60;99.90;;;;;;5115100;28;20438;-51
2022/04/15 00:04:34;;;;;;;3.20;2.90;;;14.60;99.90;;;;;;5115122;28;20470;-50
2022/04/15 00:07:01;;;;;;;2.90;2.70;;;14.60;99.90;;;;;;5114996;28;20477;-50
2022/04/15 00:09:30;;;;;;;2.93;2.70;;;14.50;99.90;;;;;;5114871;28;20462;-52
2022/04/15 00:12:01;;;;;;;2.10;2.00;;;14.50;99.90;;;;;;5115059;28;20948;-50
2022/04/15 00:14:28;;;;;;;2.50;2.30;;;14.50;99.90;;;;;;5114895;28;20474;-50
2022/04/15 00:16:55;;;;;;;3.43;2.40;;;14.50;99.90;;;;;;5114991;28;20438;-50
2022/04/15 00:19:23;;;;;;;2.40;2.20;;;14.60;99.90;;;;;;5114643;28;20914;-51
2022/04/15 00:21:50;;;;;;;3.20;2.53;;;14.60;99.90;;;;;;5115184;28;20470;-50
2022/04/15 00:24:17;;;;;;;2.67;2.43;;;14.70;99.90;;;;;;5114644;28;20934;-53
2022/04/15 00:26:44;;;;;;;2.73;2.53;;;14.70;99.90;;;;;;5114702;28;20979;-50
2022/04/15 00:29:12;;;;;;;2.70;2.50;;;14.60;99.90;;;;;;5114370;28;20450;-51
2022/04/15 00:31:39;;;;;;;2.77;2.57;;;14.50;99.90;;;;;;5114796;28;20442;-50
2022/04/15 00:34:06;;;;;;;4.77;2.80;;;14.40;99.90;;;;;;5114405;28;20956;-51
2022/04/15 00:36:33;;;;;;;3.10;2.30;;;14.30;99.90;;;;;;5114663;28;20858;-50
2022/04/15 00:39:00;;;;;;;4.27;2.57;;;14.20;99.90;;;;;;5114406;28;20486;-53
2022/04/15 00:41:27;;;;;;;3.47;2.90;;;14.30;99.90;;;;;;5114766;28;20522;-51
2022/04/15 00:43:55;;;;;;;2.37;2.07;;;14.30;99.90;;;;;;5114217;28;20458;-51
2022/04/15 00:46:23;;;;;;;2.70;2.40;;;14.20;99.90;;;;;;5114359;28;20438;-50
2022/04/15 00:48:50;;;;;;;3.10;2.17;;;14.30;99.90;;;;;;5114527;28;20565;-50
2022/04/15 00:51:17;;;;;;;5.07;2.70;;;14.10;99.90;;;;;;5114320;28;20477;-50
2022/04/15 00:53:47;;;;;;;4.20;2.40;;;14.00;99.90;;;;;;5114198;28;20470;-50
2022/04/15 00:56:14;;;;;;;3.40;3.10;;;13.70;99.90;;;;;;5113995;28;20435;-51
2022/04/15 00:58:42;;;;;;;3.03;2.40;;;13.30;99.90;;;;;;5113958;28;20462;-51
2022/04/15 01:01:09;;;;;;;4.27;2.33;;;13.00;99.90;;;;;;5114480;28;20495;-50
2022/04/15 01:03:38;;;;;;;3.00;2.27;;;12.90;99.90;;;;;;5113991;28;20450;-50
2022/04/15 01:06:10;;;;;;;3.53;3.00;;;13.00;99.90;;;;;;5114242;28;20442;-50
2022/04/15 01:08:42;;;;;;;4.03;2.50;;;13.00;99.90;;;;;;5113934;28;20557;-50
2022/04/15 01:11:12;;;;;;;3.03;2.73;;;13.10;99.90;;;;;;5112872;28;20435;-50
2022/04/15 01:13:40;;;;;;;2.53;2.33;;;13.20;99.90;;;;;;5113853;28;20439;-50
2022/04/15 01:16:09;;;;;;;4.20;3.40;;;13.30;99.90;;;;;;5114088;28;20473;-51
2022/04/15 01:18:36;;;;;;;2.70;2.50;;;13.50;99.90;;;;;;5113581;28;20498;-50
2022/04/15 01:21:04;;;;;;;3.60;2.50;;;13.40;99.90;;;;;;5113790;28;20868;-50
2022/04/15 01:23:32;;;;;;;2.50;2.30;;;13.30;99.90;;;;;;5113342;28;20471;-50
2022/04/15 01:25:59;;;;;;;3.20;2.93;;;13.20;99.90;;;;;;5113666;28;20439;-51
2022/04/15 01:28:26;;;;;;;4.63;3.47;;;13.30;99.90;;;;;;5113222;28;21232;-50
2022/04/15 01:30:53;;;;;;;3.07;2.77;;;13.30;99.90;;;;;;5113353;28;20864;-51
2022/04/15 01:33:20;;;;;;;3.07;2.53;;;13.40;99.90;;;;;;5113279;28;20489;-50
2022/04/15 01:35:47;;;;;;;3.23;2.33;;;13.40;99.90;;;;;;5113380;28;20940;-53
2022/04/15 01:38:17;;;;;;;2.97;2.67;;;13.40;99.90;;;;;;5113079;28;20521;-50
2022/04/15 01:40:46;;;;;;;4.63;3.23;;;13.40;99.90;;;;;;5113401;28;20442;-50
2022/04/15 01:43:13;;;;;;;2.43;2.23;;;13.50;99.90;;;;;;5113233;28;20942;-51
2022/04/15 01:45:40;;;;;;;3.07;2.77;;;13.40;99.90;;;;;;5113447;28;20446;-51
2022/04/15 01:48:07;;;;;;;2.50;2.30;;;13.30;99.90;;;;;;5113119;28;20472;-51
2022/04/15 01:50:34;;;;;;;3.00;2.70;;;13.40;99.90;;;;;;5112896;28;20474;-52
2022/04/15 01:53:01;;;;;;;2.67;2.47;;;13.20;99.90;;;;;;5112983;28;20438;-49
2022/04/15 01:55:29;;;;;;;2.83;2.00;;;13.00;99.90;;;;;;5113019;28;20485;-50
2022/04/15 01:57:57;;;;;;;3.07;2.30;;;12.90;99.90;;;;;;5112967;28;20547;-51
2022/04/15 02:00:24;;;;;;;2.80;2.60;;;12.90;99.90;;;;;;5112712;28;20531;-50
2022/04/15 02:02:52;;;;;;;3.10;2.80;;;13.00;99.90;;;;;;5112725;28;20442;-51
2022/04/15 02:05:19;;;;;;;2.73;2.53;;;13.00;99.90;;;;;;5113079;28;20483;-50
2022/04/15 02:07:46;;;;;;;3.47;3.07;;;12.90;99.90;;;;;;5112766;28;20573;-51
2022/04/15 02:10:13;;;;;;;2.63;2.17;;;12.90;99.90;;;;;;5112592;28;20529;-51
2022/04/15 02:12:40;;;;;;;3.00;2.70;;;13.00;99.90;;;;;;5112506;28;20521;-50
2022/04/15 02:15:09;;;;;;;2.83;2.40;;;13.00;99.90;;;;;;5113023;28;20500;-50
2022/04/15 02:17:36;;;;;;;3.17;2.80;;;13.10;99.90;;;;;;5112894;28;20438;-51
2022/04/15 02:20:04;;;;;;;2.77;2.37;;;13.10;99.90;;;;;;5112539;28;20482;-52
2022/04/15 02:22:31;;;;;;;2.90;2.27;;;13.00;99.90;;;;;;5111893;28;20855;-51
2022/04/15 02:24:58;;;;;;;2.53;2.33;;;12.80;99.90;;;;;;5112730;28;20530;-51
2022/04/15 02:27:25;;;;;;;3.27;2.37;;;12.40;99.90;;;;;;5112121;28;20438;-50
2022/04/15 02:29:52;;;;;;;2.90;2.57;;;12.30;99.90;;;;;;5112071;28;20466;-50
2022/04/15 02:32:20;;;;;;;3.67;2.53;;;12.40;99.90;;;;;;5112206;28;20493;-53
2022/04/15 02:34:47;;;;;;;3.73;2.20;;;12.40;99.90;;;;;;5112302;28;20439;-51
2022/04/15 02:37:14;;;;;;;2.97;2.77;;;12.50;99.90;;;;;;5112360;28;20515;-50
2022/04/15 02:39:41;;;;;;;2.80;2.60;;;12.70;99.90;;;;;;5112042;28;20458;-53
2022/04/15 02:42:09;;;;;;;2.87;2.60;;;12.40;99.90;;;;;;5111994;28;20448;-50
2022/04/15 02:44:38;;;;;;;4.10;2.80;;;12.10;99.90;;;;;;5112453;28;20808;-51
2022/04/15 02:47:06;;;;;;;2.97;2.67;;;11.80;99.90;;;;;;5112487;28;20446;-50
2022/04/15 02:49:34;;;;;;;2.60;2.40;;;11.50;99.90;;;;;;5111861;28;20522;-50
2022/04/15 02:52:01;;;;;;;4.23;2.90;;;11.30;99.90;;;;;;5111865;28;20437;-52
2022/04/15 02:54:29;;;;;;;6.63;2.80;;;11.40;99.90;;;;;;5111711;28;20451;-50
2022/04/15 02:56:55;;;;;;;3.97;2.60;;;11.60;99.90;;;;;;5112255;28;20525;-51
2022/04/15 02:59:22;;;;;;;3.27;2.60;;;11.70;99.90;;;;;;5111670;28;20459;-53
2022/04/15 03:01:50;;;;;;;2.97;2.63;;;11.80;99.90;;;;;;5111809;28;20439;-51
2022/04/15 03:04:17;;;;;;;3.40;3.10;;;11.80;99.90;;;;;;5111843;28;20813;-50
2022/04/15 03:06:45;;;;;;;2.60;2.40;;;11.70;99.90;;;;;;5111922;28;21041;-50
2022/04/15 03:09:13;;;;;;;3.37;3.13;;;11.70;99.90;;;;;;5111678;28;20562;-50
2022/04/15 03:11:40;;;;;;;3.13;2.93;;;11.60;99.90;;;;;;5111626;28;20491;-51
2022/04/15 03:14:07;;;;;;;2.67;2.47;;;11.70;99.90;;;;;;5111455;28;20516;-50
2022/04/15 03:16:35;;;;;;;3.10;2.80;;;11.80;99.90;;;;;;5112207;28;20471;-51
2022/04/15 03:19:02;;;;;;;2.90;2.70;;;11.90;99.90;;;;;;5112982;28;20899;-52
2022/04/15 03:21:29;;;;;;;3.80;2.63;;;11.80;99.90;;;;;;5111398;28;20998;-51
2022/04/15 03:23:57;;;;;;;3.33;3.03;;;11.80;99.90;;;;;;5111428;28;20793;-50
2022/04/15 03:26:24;;;;;;;3.53;2.97;;;11.80;99.90;;;;;;5111699;28;20474;-52
2022/04/15 03:28:51;;;;;;;5.97;3.67;;;11.90;99.90;;;;;;5111005;28;20482;-50
2022/04/15 03:31:18;;;;;;;2.67;2.47;;;12.00;99.90;;;;;;5111626;28;20558;-50
2022/04/15 03:33:45;;;;;;;3.73;3.30;;;12.00;99.90;;;;;;5111394;28;20487;-50
2022/04/15 03:36:13;;;;;;;3.43;3.20;;;12.10;99.90;;;;;;5116241;28;20443;-50
2022/04/15 03:38:40;;;;;;;5.53;3.57;;;12.20;99.90;;;;;;5115453;28;20802;-50
2022/04/15 03:41:09;;;;;;;3.20;3.00;;;12.30;99.90;;;;;;5115631;28;20446;-52
2022/04/15 03:43:36;;;;;;;4.27;3.30;;;12.30;99.90;;;;;;5115336;28;20438;-50
2022/04/15 03:46:04;;;;;;;3.13;2.80;;;12.30;99.90;;;;;;5115546;28;20805;-54
2022/04/15 03:48:31;;;;;;;2.97;2.67;;;12.30;99.90;;;;;;5115604;28;20558;-50
2022/04/15 03:50:58;;;;;;;3.00;2.70;;;12.40;99.90;;;;;;5115769;28;20438;-53
2022/04/15 03:53:25;;;;;;;2.73;2.53;;;12.60;99.90;;;;;;5115626;28;20478;-50
2022/04/15 03:55:52;;;;;;;3.50;3.00;;;12.70;99.90;;;;;;5115513;28;20443;-50
2022/04/15 03:58:20;;;;;;;3.17;2.87;;;12.50;99.90;;;;;;5115169;28;20507;-51
2022/04/15 04:00:47;;;;;;;5.40;3.30;;;12.40;99.90;;;;;;5115224;28;20495;-50
2022/04/15 04:03:15;;;;;;;3.40;3.10;;;12.20;99.90;;;;;;5115160;28;20469;-50
2022/04/15 04:05:42;;;;;;;2.97;2.77;;;12.40;99.90;;;;;;5115187;28;20450;-50
2022/04/15 04:08:09;;;;;;;3.23;3.03;;;12.50;99.90;;;;;;5115254;28;20826;-51
2022/04/15 04:10:36;;;;;;;3.90;3.13;;;12.20;99.90;;;;;;5115552;28;20443;-51
2022/04/15 04:13:03;;;;;;;6.03;4.30;;;12.10;99.90;;;;;;5114808;28;20499;-50
2022/04/15 04:15:32;;;;;;;6.47;3.50;;;12.20;99.90;;;;;;5114742;28;20491;-50
2022/04/15 04:17:59;;;;;;;4.57;3.80;;;12.10;99.90;;;;;;5114819;28;20909;-50
2022/04/15 04:20:26;;;;;;;4.57;3.93;;;12.10;99.90;;;;;;5115072;28;20434;-50
2022/04/15 04:22:53;;;;;;;3.70;3.40;;;12.30;99.90;;;;;;5114858;28;20477;-50
2022/04/15 04:25:20;;;;;;;3.67;3.33;;;12.40;99.90;;;;;;5114896;28;20477;-51
2022/04/15 04:27:47;;;;;;;3.30;3.00;;;12.40;99.90;;;;;;5114748;28;20466;-50
2022/04/15 04:30:15;;;;;;;3.53;2.90;;;12.50;99.90;;;;;;5114480;28;20930;-53
2022/04/15 04:32:49;;;;;;;3.40;3.10;;;12.70;99.90;;;;;;5114449;28;20443;-50
2022/04/15 04:35:17;;;;;;;4.23;2.53;;;12.70;99.90;;;;;;5114698;28;20446;-50
2022/04/15 04:37:44;;;;;;;3.70;3.40;;;12.80;99.90;;;;;;5114856;28;20434;-50
2022/04/15 04:40:12;;;;;;;4.97;3.70;;;12.70;99.90;;;;;;5114799;28;20443;-51
2022/04/15 04:42:40;;;;;;;3.23;2.93;;;12.80;99.90;;;;;;5114454;28;20470;-54
2022/04/15 04:45:10;;;;;;;4.50;2.60;;;12.50;99.90;;;;;;5114543;28;20472;-50
2022/04/15 04:47:37;;;;;;;3.80;3.50;;;12.30;99.90;;;;;;5114344;28;20442;-55
2022/04/15 04:50:08;;;;;;;3.37;3.10;;;12.00;99.90;;;;;;5114551;28;20550;-50
2022/04/15 04:52:35;;;;;;;3.60;3.40;;;11.90;99.90;;;;;;5114224;28;20947;-50
2022/04/15 04:55:03;;;;;;;4.90;3.83;;;12.10;99.90;;;;;;5114451;28;20474;-51
2022/04/15 04:57:30;;;;;;;3.73;3.43;;;12.10;99.90;;;;;;5114164;28;20551;-50
2022/04/15 04:59:57;;;;;;;5.93;3.67;;;12.30;99.90;;;;;;5113871;28;20439;-51
2022/04/15 05:02:24;;;;;;;5.03;4.53;;;12.20;99.90;;;;;;5113659;28;20478;-50
2022/04/15 05:04:51;;;;;;;6.60;4.20;;;12.10;99.90;;;;;;5114073;28;20470;-49
2022/04/15 05:07:19;;;;;;;4.20;3.83;;;12.10;99.90;;;;;;5114245;28;20538;-49
2022/04/15 05:09:46;;;;;;;3.47;3.17;;;12.10;99.90;;;;;;5113829;28;20570;-51
2022/04/15 05:12:13;;;;;;;4.23;3.73;;;12.00;99.90;;;;;;5113654;28;20924;-50
2022/04/15 05:14:41;;;;;;;5.10;3.43;;;12.00;99.90;;;;;;5113818;28;20503;-50
2022/04/15 05:17:08;;;;;;;5.70;4.27;;;12.00;99.90;;;;;;5114131;28;20460;-49
2022/04/15 05:19:35;;;;;;;4.73;4.43;;;11.90;99.90;;;;;;5113670;28;20545;-48
2022/04/15 05:22:02;;;;;;;10.20;5.27;;;12.00;99.90;;;;;;5112369;28;20438;-55
2022/04/15 05:24:30;;;;;;;7.43;4.80;;;12.10;99.90;;;;;;5111937;28;20980;-50
2022/04/15 05:26:58;;;;;;;4.23;3.93;;;12.30;99.90;;;;;;5112195;28;20482;-50
2022/04/15 05:29:25;;;;;;;6.63;4.50;;;12.50;99.90;;;;;;5112619;28;20892;-49
2022/04/15 05:31:52;;;;;;;10.90;4.40;;;12.70;99.90;;;;;;5113122;28;20442;-49
2022/04/15 05:34:19;;;;;;;6.53;5.93;;;12.80;99.90;;;;;;5113129;28;20442;-52
2022/04/15 05:36:46;;;;;;;5.83;5.30;;;12.90;99.90;;;;;;5113350;28;20470;-49
2022/04/15 05:39:13;;;;;;;5.50;5.00;;;13.00;99.90;;;;;;5113180;28;20454;-51
2022/04/15 05:41:41;;;;;;;7.47;4.87;;;13.10;99.90;;;;;;5113196;28;20442;-49
2022/04/15 05:44:08;;;;;;;5.43;5.00;;;13.20;99.90;;;;;;5112892;28;20470;-49
2022/04/15 05:46:37;;;;;;;4.10;3.70;;;13.30;99.90;;;;;;5113524;28;20442;-52
2022/04/15 05:49:05;;;;;;;5.07;4.43;;;13.10;99.90;;;;;;5113279;28;20896;-49
2022/04/15 05:51:32;;;;;;;6.43;4.10;;;12.80;99.90;;;;;;5113119;28;20447;-51
2022/04/15 05:53:59;;;;;;;5.23;4.73;;;12.50;99.90;;;;;;5112919;28;20446;-49
2022/04/15 05:56:26;;;;;;;5.17;4.67;;;12.40;99.90;;;;;;5112850;28;20439;-49
2022/04/15 05:58:54;;;;;;;8.63;6.70;;;12.60;99.90;;;;;;5112541;28;20458;-50
2022/04/15 06:01:21;;;;;;;12.13;8.23;;;12.70;99.90;;;;;;5113278;28;20884;-49
2022/04/15 06:03:48;;;;;;;10.13;8.43;;;12.80;99.90;;;;;;5112867;28;20473;-49
2022/04/15 06:06:15;;;;;;;11.20;7.20;;;13.00;99.90;;;;;;5112927;28;20521;-51
2022/04/15 06:08:42;;;;;;;13.37;7.67;;;13.10;99.90;;;;;;5112802;28;20805;-49
2022/04/15 06:11:09;;;;;;;6.23;5.63;;;13.20;99.90;;;;;;5112636;28;20443;-52
2022/04/15 06:13:37;;;;;;;4.90;4.50;;;13.30;99.90;;;;;;5112710;28;20431;-49
2022/04/15 06:16:09;;;;;;;6.40;4.87;;;13.40;99.90;;;;;;5111918;28;20447;-50
2022/04/15 06:18:36;;;;;;;6.43;5.43;;;13.60;99.90;;;;;;5110905;28;20474;-49
2022/04/15 06:21:04;;;;;;;5.80;5.30;;;13.60;99.90;;;;;;5111239;28;20941;-52
2022/04/15 06:23:31;;;;;;;5.27;4.20;;;13.60;99.90;;;;;;5110732;28;20443;-50
2022/04/15 06:25:58;;;;;;;9.43;6.07;;;13.70;99.90;;;;;;5110859;28;20477;-51
2022/04/15 06:28:25;;;;;;;7.23;4.43;;;13.70;99.90;;;;;;5110757;28;20458;-50
2022/04/15 06:30:54;;;;;;;4.73;4.23;;;13.80;99.90;;;;;;5111351;28;21075;-51
2022/04/15 06:33:22;;;;;;;5.60;4.43;;;13.90;99.90;;;;;;5112210;28;20491;-50
2022/04/15 06:35:50;;;;;;;5.23;4.83;;;13.90;99.90;;;;;;5112310;28;21018;-49
2022/04/15 06:38:17;;;;;;;5.50;4.97;;;13.50;99.90;;;;;;5111447;28;20466;-49
2022/04/15 06:40:44;;;;;;;5.97;5.47;;;13.20;99.90;;;;;;5109177;27;20496;-49
2022/04/15 06:43:13;;;;;;;6.93;5.80;;;12.70;99.90;;;;;;5111585;28;20439;-50
2022/04/15 06:45:41;;;;;;;7.80;6.50;;;12.50;99.90;;;;;;5112131;28;20665;-51
2022/04/15 06:48:08;;;;;;;7.03;6.53;;;12.40;99.90;;;;;;5112108;28;20490;-50
2022/04/15 06:50:37;;;;;;;4.80;4.40;;;12.40;99.90;;;;;;5111741;28;20573;-49
2022/04/15 06:53:04;;;;;;;5.13;4.63;;;12.50;99.90;;;;;;5111502;28;20495;-50
2022/04/15 06:55:31;;;;;;;6.23;5.63;;;12.70;99.90;;;;;;5111383;28;20486;-49
2022/04/15 06:57:58;;;;;;;5.73;5.23;;;12.90;99.90;;;;;;5111832;28;20459;-50
2022/04/15 07:00:25;;;;;;;6.77;5.27;;;13.00;99.90;;;;;;5112078;28;20492;-49
2022/04/15 07:02:52;;;;;;;5.30;4.80;;;13.00;99.90;;;;;;5111338;28;20450;-53
2022/04/15 07:05:19;;;;;;;5.53;5.03;;;13.30;99.90;;;;;;5109554;28;20515;-50
2022/04/15 07:07:48;;;;;;;5.43;4.77;;;13.40;99.90;;;;;;5110290;28;20833;-53
2022/04/15 07:10:15;;;;;;;5.07;4.60;;;13.40;99.90;;;;;;5109397;28;20506;-52
2022/04/15 07:12:42;;;;;;;4.90;4.27;;;13.40;99.90;;;;;;5109978;28;20492;-50
2022/04/15 07:15:09;;;;;;;11.53;10.70;;;13.20;99.90;;;;;;5110183;28;20438;-52
2022/04/15 07:17:36;;;;;;;8.80;8.20;;;13.10;99.90;;;;;;5109858;28;20439;-50
2022/04/15 07:20:04;;;;;;;7.27;6.77;;;13.20;99.90;;;;;;5111419;28;20474;-53
2022/04/15 07:22:31;;;;;;;6.30;5.70;;;13.30;99.90;;;;;;5111480;28;20462;-50
2022/04/15 07:24:59;;;;;;;5.47;4.97;;;13.40;99.90;;;;;;5102024;28;20870;-50
2022/04/15 07:27:26;;;;;;;7.13;6.43;;;13.40;99.90;;;;;;5091233;28;20526;-50
2022/04/15 07:29:53;;;;;;;8.53;7.77;;;13.50;99.90;;;;;;5090673;28;20570;-50
2022/04/15 07:32:22;;;;;;;16.17;6.73;;;13.50;99.90;;;;;;5091064;28;20444;-50
2022/04/15 07:34:50;;;;;;;5.30;4.80;;;13.50;99.90;;;;;;5089435;28;20439;-50
2022/04/15 07:37:17;;;;;;;5.23;4.80;;;13.60;99.90;;;;;;5089661;28;20436;-51
2022/04/15 07:39:44;;;;;;;5.13;4.73;;;13.70;99.90;;;;;;5088872;28;20482;-50
2022/04/15 07:42:13;;;;;;;7.10;6.50;;;13.70;99.90;;;;;;5089155;28;20435;-50
2022/04/15 07:44:40;;;;;;;6.10;5.50;;;13.60;99.90;;;;;;5088814;28;20474;-49
2022/04/15 07:47:09;;;;;;;6.30;5.80;;;13.40;99.90;;;;;;5089489;28;20439;-52
2022/04/15 07:49:37;;;;;;;6.53;5.40;;;13.20;99.90;;;;;;5090985;28;20573;-50
2022/04/15 07:52:05;;;;;;;5.77;5.27;;;13.10;99.90;;;;;;5090733;28;20447;-51
2022/04/15 07:54:33;;;;;;;5.77;5.27;;;13.10;99.90;;;;;;5090736;28;20443;-49
2022/04/15 07:57:00;;;;;;;6.30;5.67;;;13.20;99.90;;;;;;5090763;28;20830;-50
2022/04/15 07:59:29;;;;;;;6.07;5.53;;;13.20;99.90;;;;;;5090778;28;20491;-49
2022/04/15 08:01:56;;;;;;;9.57;6.40;;;13.30;99.90;;;;;;5089928;28;20592;-50
2022/04/15 08:04:23;;;;;;;7.63;5.60;;;13.40;99.90;;;;;;5090697;28;20436;-49
2022/04/15 08:06:50;;;;;;;8.20;7.40;;;13.40;99.90;;;;;;5090447;28;20519;-50
2022/04/15 08:09:17;;;;;;;8.20;7.50;;;13.40;99.90;;;;;;5090132;28;20467;-50
2022/04/15 08:11:44;;;;;;;7.23;6.63;;;13.40;99.90;;;;;;5090935;28;20471;-50
2022/04/15 08:14:11;;;;;;;10.13;9.13;;;13.50;99.90;;;;;;5090989;28;20479;-51
2022/04/15 08:16:39;;;;;;;9.37;8.50;;;13.50;99.90;;;;;;5090853;28;20435;-50
2022/04/15 08:19:06;;;;;;;12.23;10.63;;;13.30;99.90;;;;;;5089079;28;20554;-49
2022/04/15 08:21:34;;;;;;;6.97;5.90;;;13.40;99.90;;;;;;5092046;28;20439;-53
2022/04/15 08:24:01;;;;;;;5.83;5.07;;;13.60;99.90;;;;;;5092785;28;20527;-50
2022/04/15 08:26:29;;;;;;;6.70;6.00;;;13.50;99.90;;;;;;5093217;28;20451;-52
2022/04/15 08:28:56;;;;;;;6.10;5.60;;;13.80;99.90;;;;;;5093001;28;20459;-50
2022/04/15 08:31:23;;;;;;;5.10;4.70;;;13.80;99.90;;;;;;5092425;28;20565;-55
2022/04/15 08:33:52;;;;;;;5.57;5.07;;;13.70;99.90;;;;;;5093186;28;20501;-50
2022/04/15 08:36:19;;;;;;;7.03;5.40;;;13.70;99.90;;;;;;5094035;28;20996;-49
2022/04/15 08:38:46;;;;;;;5.03;4.53;;;13.60;99.90;;;;;;5093447;28;20455;-50
2022/04/15 08:41:14;;;;;;;5.40;5.00;;;13.50;99.90;;;;;;5094090;28;20435;-52
2022/04/15 08:43:42;;;;;;;6.03;5.43;;;13.40;99.90;;;;;;5093626;28;20439;-50
2022/04/15 08:46:11;;;;;;;5.97;4.40;;;13.30;99.90;;;;;;5093707;28;20456;-50
2022/04/15 08:48:39;;;;;;;6.10;5.60;;;13.20;99.90;;;;;;5099756;28;20878;-51
2022/04/15 08:51:08;;;;;;;6.20;5.60;;;13.10;99.90;;;;;;5110942;28;20470;-50
2022/04/15 08:53:37;;;;;;;6.93;6.10;;;13.10;99.90;;;;;;5091564;28;20439;-51
2022/04/15 08:56:04;;;;;;;5.53;5.00;;;13.30;99.90;;;;;;5092311;28;20524;-52
2022/04/15 08:58:31;;;;;;;6.93;5.97;;;13.50;99.90;;;;;;5092291;28;20494;-50
2022/04/15 09:00:58;;;;;;;6.90;6.20;;;13.50;99.90;;;;;;5091784;28;21000;-50
2022/04/15 09:03:26;;;;;;;6.50;5.90;;;13.40;99.90;;;;;;5092268;28;20475;-51
2022/04/15 09:05:54;;;;;;;8.17;7.10;;;13.60;99.90;;;;;;5093475;28;20444;-50
2022/04/15 09:08:23;;;;;;;5.93;5.50;;;13.60;99.90;;;;;;5093448;28;20463;-51
2022/04/15 09:11:00;;;;;;;6.40;5.80;;;13.40;99.90;;;;;;5093343;28;20543;-52
2022/04/15 09:13:33;;;;;;;8.10;6.80;;;13.30;99.90;;;;;;5093567;28;20439;-50
2022/04/15 09:16:02;;;;;;;6.93;6.23;;;13.10;99.90;;;;;;5092935;28;20470;-52
2022/04/15 09:18:30;;;;;;;9.50;6.53;;;12.80;99.90;;;;;;5114063;22;20459;-47
2022/04/15 09:21:17;;;;;;;7.03;6.37;;;12.70;99.90;;;;;;5153556;27;20424;-53
2022/04/15 09:23:47;;;;;;;10.23;9.33;;;12.60;99.90;;;;;;5152688;27;20437;-48
2022/04/15 09:26:15;;;;;;;9.50;8.60;;;12.50;99.90;;;;;;5153555;27;20433;-48
2022/04/15 09:28:42;;;;;;;7.97;7.20;;;12.30;99.90;;;;;;5144537;27;20466;-49
2022/04/15 09:31:13;;;;;;;13.43;10.10;;;12.20;99.90;;;;;;5132009;27;20469;-47
2022/04/15 09:33:53;;;;;;;12.50;10.17;;;12.30;99.90;;;;;;5131515;27;20814;-48
2022/04/15 09:36:25;;;;;;;9.70;8.70;;;12.20;99.90;;;;;;5133156;27;20434;-52
2022/04/15 09:38:59;;;;;;;8.43;7.50;;;12.10;99.90;;;;;;5132925;27;20804;-53
2022/04/15 09:41:29;;;;;;;9.23;8.27;;;12.10;99.90;;;;;;5132549;27;21237;-47
2022/04/15 09:43:58;;;;;;;10.43;9.50;;;12.10;99.90;;;;;;5132124;27;20533;-50
2022/04/15 09:46:27;;;;;;;10.90;9.80;;;12.10;99.90;;;;;;5132258;27;20965;-48
2022/04/15 09:49:15;;;;;;;9.63;8.63;;;12.20;99.90;;;;;;5132287;27;20931;-48
2022/04/15 09:51:44;;;;;;;9.40;8.47;;;12.40;99.90;;;;;;5127154;27;20577;-47
2022/04/15 09:54:25;;;;;;;10.40;7.63;;;12.60;99.90;;;;;;5132479;27;20482;-52
2022/04/15 09:56:54;;;;;;;9.40;8.27;;;12.90;99.90;;;;;;5133695;27;20441;-49
2022/04/15 09:59:23;;;;;;;10.27;9.20;;;13.00;99.90;;;;;;5133951;27;20493;-49
2022/04/15 10:01:55;;;;;;;8.30;7.50;;;12.90;99.90;;;;;;5133679;27;20461;-53
2022/04/15 10:04:23;;;;;;;7.50;6.83;;;12.70;99.90;;;;;;5124088;27;20485;-49
2022/04/15 10:06:51;;;;;;;7.87;6.67;;;12.70;99.90;;;;;;5112542;28;20439;-49
2022/04/15 10:09:21;;;;;;;6.83;6.20;;;12.80;99.90;;;;;;5115418;27;20541;-49
2022/04/15 10:11:49;;;;;;;7.10;6.57;;;12.80;99.90;;;;;;5112808;28;20527;-50
2022/04/15 10:14:19;;;;;;;8.53;7.20;;;13.00;99.90;;;;;;5112680;28;20439;-49
2022/04/15 10:16:46;;;;;;;7.17;6.67;;;13.20;99.90;;;;;;5113348;28;20525;-49
2022/04/15 10:19:13;;;;;;;7.87;7.17;;;13.40;99.90;;;;;;5112189;28;21003;-52
2022/04/15 10:21:42;;;;;;;7.90;7.07;;;13.50;99.90;;;;;;5112478;28;20491;-49
2022/04/15 10:24:09;;;;;;;8.70;8.00;;;13.60;99.90;;;;;;5112654;28;20438;-50
2022/04/15 10:26:41;;;;;;;11.90;8.90;;;13.70;99.90;;;;;;5116959;27;20875;-50
2022/04/15 10:29:09;;;;;;;9.10;8.20;;;13.70;99.90;;;;;;5117170;27;20458;-50
2022/04/15 10:31:41;;;;;;;8.80;8.00;;;13.80;99.90;;;;;;5111986;28;20474;-49
2022/04/15 10:34:13;;;;;;;10.93;8.83;;;14.00;99.90;;;;;;5111979;28;20996;-52
2022/04/15 10:36:48;;;;;;;8.53;7.83;;;14.10;99.90;;;;;;5112532;28;20442;-51
2022/04/15 10:39:19;;;;;;;9.90;8.90;;;14.30;99.90;;;;;;5112097;28;20523;-50
2022/04/15 10:42:17;;;;;;;9.63;8.73;;;14.40;99.90;;;;;;5112109;28;20435;-49
2022/04/15 10:44:44;;;;;;;8.30;7.33;;;14.50;99.90;;;;;;5112296;28;20435;-49
2022/04/15 10:47:14;;;;;;;7.43;6.73;;;14.60;99.90;;;;;;5111728;28;20989;-51
2022/04/15 10:49:53;;;;;;;9.17;7.60;;;14.40;99.90;;;;;;5112490;28;20955;-50
2022/04/15 10:52:24;;;;;;;10.50;9.67;;;14.50;99.90;;;;;;5111431;28;20993;-49
2022/04/15 10:54:53;;;;;;;10.17;9.37;;;14.60;99.90;;;;;;5112234;28;20474;-49
2022/04/15 10:57:23;;;;;;;12.33;11.13;;;14.60;99.90;;;;;;5111774;28;21008;-50
2022/04/15 11:02:44;;;;;;;45.33;30.30;;;14.70;99.90;;;;;;5110515;28;20413;-52
2022/04/15 11:05:15;;;;;;;13.67;12.30;;;14.80;99.90;;;;;;5110269;28;20874;-52
2022/04/15 11:07:49;;;;;;;8.63;7.17;;;14.80;99.90;;;;;;5110506;28;20431;-54
2022/04/15 11:10:19;;;;;;;8.93;7.63;;;14.70;99.90;;;;;;5110256;28;20836;-53
2022/04/15 11:12:48;;;;;;;7.90;7.20;;;14.80;99.90;;;;;;5110081;28;20442;-51
2022/04/15 11:15:18;;;;;;;8.17;7.40;;;14.80;99.90;;;;;;5111154;28;20526;-53
2022/04/15 11:17:47;;;;;;;8.70;7.80;;;14.80;99.90;;;;;;5111719;28;20443;-49
2022/04/15 11:20:14;;;;;;;7.90;7.37;;;14.90;99.90;;;;;;5114161;27;20515;-50
2022/04/15 11:22:42;;;;;;;8.67;7.87;;;14.90;99.90;;;;;;5111468;28;20679;-51
2022/04/15 11:25:11;;;;;;;9.53;8.50;;;14.90;99.90;;;;;;5111716;28;20470;-53
2022/04/15 11:27:39;;;;;;;9.50;8.60;;;14.90;99.90;;;;;;5110884;28;20439;-55
2022/04/15 11:30:13;;;;;;;9.00;8.10;;;15.00;99.90;;;;;;5109953;28;20458;-50
2022/04/15 11:32:47;;;;;;;9.20;8.30;;;15.10;99.90;;;;;;5110032;28;20481;-50
2022/04/15 11:35:27;;;;;;;10.17;9.30;;;15.00;99.90;;;;;;5110286;28;20477;-51
2022/04/15 11:37:57;;;;;;;9.03;8.17;;;14.90;99.90;;;;;;5109575;28;20811;-50
2022/04/15 11:40:24;;;;;;;8.90;8.10;;;14.80;99.90;;;;;;5109958;28;20455;-51
2022/04/15 11:42:57;;;;;;;11.93;10.73;;;14.90;99.90;;;;;;5110821;28;20434;-50
2022/04/15 11:45:37;;;;;;;9.97;8.70;;;14.60;99.90;;;;;;5111754;28;20496;-52
2022/04/15 11:48:17;;;;;;;7.83;7.13;;;14.50;99.90;;;;;;5111544;28;20466;-50
2022/04/15 11:50:45;;;;;;;10.57;9.47;;;14.60;99.90;;;;;;5110821;28;20506;-50
2022/04/15 11:53:13;;;;;;;8.53;7.80;;;14.70;99.90;;;;;;5110215;28;20475;-52
2022/04/15 11:55:53;;;;;;;7.83;7.13;;;14.80;99.90;;;;;;5111794;28;20439;-52
2022/04/15 11:58:22;;;;;;;10.50;8.27;;;14.80;99.90;;;;;;5113768;28;20442;-50
2022/04/15 12:00:55;;;;;;;10.80;8.10;;;14.90;99.90;;;;;;5114346;28;20469;-51
2022/04/15 12:03:23;;;;;;;9.43;8.50;;;14.90;99.90;;;;;;5113740;28;20928;-51
2022/04/15 12:05:51;;;;;;;10.43;7.77;;;15.00;99.90;;;;;;5114333;28;20499;-55
2022/04/15 12:08:19;;;;;;;7.57;6.73;;;14.80;99.90;;;;;;5115362;28;20443;-51
2022/04/15 12:10:47;;;;;;;7.57;6.87;;;14.70;99.90;;;;;;5114919;28;20470;-53
2022/04/15 12:13:15;;;;;;;7.37;6.00;;;14.70;99.90;;;;;;5115129;28;20808;-53
2022/04/15 12:15:43;;;;;;;7.73;7.03;;;14.70;99.90;;;;;;5115449;28;20439;-49
2022/04/15 12:18:12;;;;;;;8.80;8.00;;;14.60;99.90;;;;;;5114810;28;20450;-52
2022/04/15 12:20:41;;;;;;;9.63;8.77;;;14.60;99.90;;;;;;5113956;28;20430;-51
2022/04/15 12:23:13;;;;;;;8.30;7.60;;;14.70;99.90;;;;;;5113407;28;20466;-50
2022/04/15 12:31:28;;;;;;;9.13;8.23;;;14.90;99.90;;;;;;5113609;28;21046;-50
2022/04/15 12:33:56;;;;;;;10.50;9.50;;;15.00;99.90;;;;;;5113827;28;20473;-50
2022/04/15 12:36:23;;;;;;;11.23;8.60;;;15.20;99.90;;;;;;5115190;28;20472;-50
2022/04/15 12:39:01;;;;;;;11.00;10.10;;;15.30;99.90;;;;;;5114676;27;20494;-49
2022/04/15 12:41:39;;;;;;;9.13;8.30;;;15.60;99.90;;;;;;5131371;27;20537;-48
2022/04/15 12:44:14;;;;;;;9.43;8.53;;;15.90;99.90;;;;;;5135313;27;20745;-48
2022/04/15 12:46:43;;;;;;;10.00;9.10;;;16.10;99.90;;;;;;5135463;27;20537;-48
2022/04/15 12:49:27;;;;;;;10.30;9.40;;;16.30;99.90;;;;;;5135052;27;20449;-47
2022/04/15 12:51:58;;;;;;;9.47;8.67;;;16.10;99.90;;;;;;5134501;27;20477;-47
2022/04/15 12:54:26;;;;;;;9.77;8.87;;;16.10;99.90;;;;;;5135114;27;20593;-48
2022/04/15 12:56:57;;;;;;;10.03;9.13;;;16.20;99.90;;;;;;5135283;27;20447;-48
2022/04/15 12:59:24;;;;;;;10.77;9.10;;;16.30;99.90;;;;;;5134731;27;21050;-52
2022/04/15 13:01:51;;;;;;;9.70;8.90;;;16.30;99.90;;;;;;5134954;27;20847;-53